Time;durP1;ratioP1;P1;durP2;ratioP2;P2;SDS_P1;SDS_P2;PMS_P1;PMS_P2;Temp;Humidity;BMP_temperature;BMP_pressure;BME280_temperature;BME280_humidity;BME280_pressure;Samples;Min_cycle;Max_cycle;Signal;HPM_P1;HPM_P2
2021/03/12 00:01:06;;;;;;;;;;;;;;;4.20;80.12;98922.94;5136390;27;20293;-71
2021/03/12 00:03:35;;;;;;;;;;;;;;;4.29;80.25;98925.59;5136348;27;19923;-72
2021/03/12 00:06:04;;;;;;;;;;;;;;;4.34;80.22;98940.78;5136539;27;19923;-72
2021/03/12 00:08:34;;;;;;;;;;;;;;;4.32;80.24;98962.66;5136263;27;19923;-72
2021/03/12 00:11:02;;;;;;;;;;;;;;;4.39;80.64;98969.47;5136229;27;20380;-72
2021/03/12 00:13:31;;;;;;;;;;;;;;;4.44;80.10;98938.38;5136185;27;19927;-72
2021/03/12 00:16:00;;;;;;;;;;;;;;;4.43;80.33;98915.63;5136094;27;19993;-72
2021/03/12 00:18:32;;;;;;;;;;;;;;;4.48;81.11;98873.59;5136438;27;19927;-72
2021/03/12 00:21:02;;;;;;;;;;;;;;;4.52;81.03;98824.78;5117790;27;19923;-72
2021/03/12 00:23:30;;;;;;;;;;;;;;;4.48;81.20;98783.50;5118062;27;19923;-72
2021/03/12 00:25:57;;;;;;;;;;;;;;;4.39;80.86;98762.38;5135802;27;19967;-72
2021/03/12 00:28:26;;;;;;;;;;;;;;;4.23;81.31;98779.03;5135768;27;19991;-72
2021/03/12 00:30:53;;;;;;;;;;;;;;;4.24;81.18;98744.53;5135875;27;20266;-72
2021/03/12 00:33:23;;;;;;;;;;;;;;;4.29;81.70;98780.78;5135787;27;20376;-72
2021/03/12 00:35:52;;;;;;;;;;;;;;;4.40;81.86;98794.34;5136065;27;20377;-72
2021/03/12 00:38:19;;;;;;;;;;;;;;;4.49;82.00;98776.75;5135925;27;19930;-72
2021/03/12 00:40:51;;;;;;;;;;;;;;;4.53;81.95;98783.53;5117359;27;20334;-72
2021/03/12 00:43:20;;;;;;;;;;;;;;;4.58;81.40;98769.28;5100614;27;19924;-72
2021/03/12 00:45:49;;;;;;;;;;;;;;;4.58;81.83;98764.22;5117764;27;20014;-72
2021/03/12 00:48:20;;;;;;;;;;;;;;;4.62;81.47;98755.81;5117269;27;19924;-72
2021/03/12 00:50:49;;;;;;;;;;;;;;;4.68;82.03;98750.78;5135413;27;19924;-72
2021/03/12 00:53:22;;;;;;;;;;;;;;;4.70;81.64;98728.94;5117239;27;20292;-72
2021/03/12 00:55:51;;;;;;;;;;;;;;;4.72;82.03;98722.22;5135205;27;20006;-72
2021/03/12 00:58:22;;;;;;;;;;;;;;;4.75;81.60;98733.16;5117397;27;19938;-72
2021/03/12 01:00:56;;;;;;;;;;;;;;;4.80;81.66;98739.94;5117051;27;20031;-72
2021/03/12 01:03:30;;;;;;;;;;;;;;;4.81;81.69;98726.47;5117071;27;19924;-72
2021/03/12 01:06:05;;;;;;;;;;;;;;;4.80;81.67;98740.78;5117299;27;19923;-72
2021/03/12 01:08:41;;;;;;;;;;;;;;;4.71;82.47;98745.78;5116882;27;19924;-72
2021/03/12 01:11:10;;;;;;;;;;;;;;;4.73;81.79;98750.00;5116271;27;19923;-72
2021/03/12 01:13:41;;;;;;;;;;;;;;;4.70;81.51;98766.84;5117263;27;19931;-73
2021/03/12 01:16:09;;;;;;;;;;;;;;;4.67;81.84;98749.13;5135020;27;19924;-72
2021/03/12 01:18:37;;;;;;;;;;;;;;;4.64;82.12;98747.41;5135022;27;20305;-72
2021/03/12 01:21:32;;;;;;;;;;;;;;;4.61;82.45;98738.94;5132255;27;19923;-73
2021/03/12 01:24:03;;;;;;;;;;;;;;;4.57;82.38;98734.72;5116638;28;19969;-72
2021/03/12 01:26:36;;;;;;;;;;;;;;;4.64;82.51;98746.56;5117039;27;19934;-72
2021/03/12 01:29:09;;;;;;;;;;;;;;;4.62;82.34;98738.97;5134824;27;19927;-72
2021/03/12 01:31:48;;;;;;;;;;;;;;;4.59;81.79;98740.63;5135001;28;20373;-73
2021/03/12 01:34:18;;;;;;;;;;;;;;;4.59;82.29;98738.09;5116688;28;20331;-73
2021/03/12 01:36:48;;;;;;;;;;;;;;;4.57;81.96;98734.72;5117200;28;19923;-73
2021/03/12 01:39:15;;;;;;;;;;;;;;;4.56;82.23;98738.06;5134819;28;20365;-72
2021/03/12 01:41:47;;;;;;;;;;;;;;;4.56;82.31;98728.81;5116571;28;19972;-73
2021/03/12 01:44:20;;;;;;;;;;;;;;;4.58;82.44;98724.63;5134804;28;19924;-73
2021/03/12 01:46:52;;;;;;;;;;;;;;;4.54;82.71;98717.84;5116583;28;20316;-73
2021/03/12 01:49:26;;;;;;;;;;;;;;;4.61;82.10;98717.06;5116575;28;19927;-72
2021/03/12 01:51:55;;;;;;;;;;;;;;;4.59;82.01;98717.88;5116539;28;19924;-73
2021/03/12 01:54:23;;;;;;;;;;;;;;;4.63;82.53;98732.25;5116230;28;19923;-72
2021/03/12 01:57:01;;;;;;;;;;;;;;;4.59;82.89;98700.19;5116408;28;20377;-72
2021/03/12 01:59:37;;;;;;;;;;;;;;;4.59;82.11;98690.09;5116737;28;19923;-73
2021/03/12 02:02:16;;;;;;;;;;;;;;;4.70;82.83;98693.56;5116382;28;19931;-72
2021/03/12 02:04:58;;;;;;;;;;;;;;;4.76;82.39;98718.84;5116430;28;19923;-72
2021/03/12 02:07:27;;;;;;;;;;;;;;;4.73;82.53;98724.72;5134530;28;20439;-73
2021/03/12 02:10:07;;;;;;;;;;;;;;;4.71;82.62;98712.91;5134670;28;19980;-72
2021/03/12 02:12:45;;;;;;;;;;;;;;;4.65;82.31;98716.25;5116921;28;19923;-72
2021/03/12 02:15:16;;;;;;;;;;;;;;;4.62;82.36;98717.91;5116349;28;19930;-73
2021/03/12 02:17:49;;;;;;;;;;;;;;;4.63;82.74;98701.94;5134513;28;19976;-73
2021/03/12 02:20:35;;;;;;;;;;;;;;;4.58;82.77;98708.63;5116346;28;19927;-73
2021/03/12 02:23:11;;;;;;;;;;;;;;;4.48;82.74;98710.25;5125028;27;20026;-72
2021/03/12 02:25:42;;;;;;;;;;;;;;;4.47;82.42;98710.22;5120355;27;19937;-72
2021/03/12 02:28:13;;;;;;;;;;;;;;;4.53;82.96;98720.38;5120149;27;19924;-72
2021/03/12 02:30:41;;;;;;;;;;;;;;;4.56;82.26;98728.81;5138252;27;19938;-72
2021/03/12 02:33:10;;;;;;;;;;;;;;;4.54;82.13;98738.06;5119823;27;20369;-73
2021/03/12 02:35:46;;;;;;;;;;;;;;;4.50;83.05;98750.66;5120763;27;19946;-72
2021/03/12 02:38:33;;;;;;;;;;;;;;;4.56;82.34;98728.81;5119807;27;19923;-73
2021/03/12 02:41:08;;;;;;;;;;;;;;;4.54;82.51;98727.09;5138020;27;20018;-72
2021/03/12 02:43:44;;;;;;;;;;;;;;;4.56;82.77;98725.44;5138239;27;19995;-73
2021/03/12 02:46:17;;;;;;;;;;;;;;;4.63;82.55;98719.63;5119652;27;19954;-74
2021/03/12 02:48:45;;;;;;;;;;;;;;;4.62;82.36;98720.44;5137746;27;20301;-73
2021/03/12 02:51:13;;;;;;;;;;;;;;;4.57;82.46;98729.66;5119474;27;19923;-73
2021/03/12 02:53:41;;;;;;;;;;;;;;;4.58;82.80;98736.44;5119603;27;19923;-73
2021/03/12 02:56:18;;;;;;;;;;;;;;;4.56;82.28;98760.81;5119749;27;19923;-73
2021/03/12 02:58:50;;;;;;;;;;;;;;;4.62;82.48;98745.72;5137993;27;19924;-72
2021/03/12 03:01:34;;;;;;;;;;;;;;;4.62;82.68;98730.53;5119333;27;20448;-73
2021/03/12 03:04:13;;;;;;;;;;;;;;;4.60;82.33;98728.03;5137671;27;19924;-73
2021/03/12 03:06:54;;;;;;;;;;;;;;;4.62;82.65;98717.91;5119233;27;19967;-73
2021/03/12 03:09:24;;;;;;;;;;;;;;;4.57;82.30;98737.25;5119378;27;19927;-72
2021/03/12 03:11:52;;;;;;;;;;;;;;;4.52;81.91;98743.94;5119162;27;19958;-73
2021/03/12 03:14:21;;;;;;;;;;;;;;;4.56;82.01;98743.97;5137414;27;19930;-73
2021/03/12 03:16:50;;;;;;;;;;;;;;;4.58;82.52;98728.84;5118984;27;19923;-73
2021/03/12 03:19:18;;;;;;;;;;;;;;;4.57;82.36;98748.19;5119016;27;19923;-72
2021/03/12 03:21:46;;;;;;;;;;;;;;;4.53;82.39;98750.69;5119547;27;20068;-72
2021/03/12 03:24:14;;;;;;;;;;;;;;;4.56;82.38;98773.44;5119014;27;19927;-73
2021/03/12 03:26:42;;;;;;;;;;;;;;;4.62;83.00;98776.03;5118868;27;20017;-73
2021/03/12 03:29:13;;;;;;;;;;;;;;;4.62;82.72;98770.97;5137295;27;19923;-73
2021/03/12 03:31:41;;;;;;;;;;;;;;;4.63;82.19;98778.56;5137065;27;19924;-72
2021/03/12 03:34:10;;;;;;;;;;;;;;;4.68;82.23;98771.00;5118009;27;20022;-72
2021/03/12 03:36:38;;;;;;;;;;;;;;;4.65;82.37;98781.13;5138054;27;19924;-72
2021/03/12 03:39:07;;;;;;;;;;;;;;;4.52;81.79;98774.25;5137129;27;19927;-73
2021/03/12 03:41:39;;;;;;;;;;;;;;;4.46;82.64;98779.25;5118613;27;20373;-72
2021/03/12 03:44:21;;;;;;;;;;;;;;;4.43;82.24;98784.28;5118820;27;19923;-74
2021/03/12 03:46:51;;;;;;;;;;;;;;;4.45;82.70;98786.00;5118490;27;19974;-72
2021/03/12 03:49:21;;;;;;;;;;;;;;;4.44;82.99;98796.09;5118302;27;20404;-72
2021/03/12 03:51:49;;;;;;;;;;;;;;;4.48;82.80;98815.47;5118373;27;19966;-72
2021/03/12 03:54:23;;;;;;;;;;;;;;;4.43;82.53;98824.69;5118401;27;19923;-72
2021/03/12 03:56:58;;;;;;;;;;;;;;;4.19;82.66;98824.44;5118488;27;19923;-72
2021/03/12 03:59:26;;;;;;;;;;;;;;;4.20;82.43;98836.25;5118113;27;20445;-72
2021/03/12 04:01:55;;;;;;;;;;;;;;;4.26;83.00;98846.41;5136433;27;20269;-72
2021/03/12 04:04:28;;;;;;;;;;;;;;;4.29;83.25;98842.25;5118481;27;19985;-72
2021/03/12 04:06:57;;;;;;;;;;;;;;;4.13;82.78;98830.28;5136328;27;19929;-72
2021/03/12 04:09:26;;;;;;;;;;;;;;;4.12;83.30;98842.88;5117976;27;19950;-73
2021/03/12 04:11:55;;;;;;;;;;;;;;;4.19;83.23;98854.75;5117925;27;20473;-73
2021/03/12 04:14:41;;;;;;;;;;;;;;;4.25;83.13;98852.31;5136287;27;19923;-72
2021/03/12 04:17:10;;;;;;;;;;;;;;;4.27;83.42;98838.00;5117750;27;19930;-73
2021/03/12 04:19:39;;;;;;;;;;;;;;;4.23;83.54;98836.25;5118109;27;20321;-73
2021/03/12 04:22:08;;;;;;;;;;;;;;;4.14;83.55;98826.06;5117926;27;19972;-72
2021/03/12 04:24:38;;;;;;;;;;;;;;;4.18;83.65;98842.94;5117673;27;19931;-72
2021/03/12 04:27:09;;;;;;;;;;;;;;;4.17;83.75;98846.31;5117673;27;20365;-73
2021/03/12 04:29:37;;;;;;;;;;;;;;;4.16;83.83;98839.56;5117472;27;19923;-72
2021/03/12 04:32:06;;;;;;;;;;;;;;;4.19;83.83;98855.59;5117395;27;20018;-72
2021/03/12 04:34:35;;;;;;;;;;;;;;;4.22;83.68;98858.16;5135862;27;19968;-73
2021/03/12 04:37:04;;;;;;;;;;;;;;;4.24;83.56;98853.97;5135775;27;20381;-73
2021/03/12 04:39:34;;;;;;;;;;;;;;;4.23;84.29;98831.22;5118109;27;19924;-72
2021/03/12 04:42:03;;;;;;;;;;;;;;;4.17;83.98;98842.13;5117332;27;20282;-73
2021/03/12 04:44:30;;;;;;;;;;;;;;;4.12;84.20;98837.84;5117443;27;19952;-72
2021/03/12 04:46:58;;;;;;;;;;;;;;;4.12;84.00;98847.94;5135757;27;20334;-73
2021/03/12 04:49:27;;;;;;;;;;;;;;;4.19;84.09;98849.69;5117107;27;20369;-72
2021/03/12 04:52:01;;;;;;;;;;;;;;;4.27;84.16;98843.06;5117228;27;19924;-73
2021/03/12 04:54:30;;;;;;;;;;;;;;;4.22;84.11;98834.59;5117198;27;20448;-72
2021/03/12 04:56:58;;;;;;;;;;;;;;;4.23;83.90;98841.31;5135350;27;19966;-72
2021/03/12 04:59:28;;;;;;;;;;;;;;;4.26;84.66;98853.97;5117428;27;19923;-72
2021/03/12 05:01:57;;;;;;;;;;;;;;;4.32;84.57;98846.50;5135302;27;20270;-73
2021/03/12 05:04:25;;;;;;;;;;;;;;;4.34;84.55;98829.66;5117055;27;19924;-73
2021/03/12 05:06:55;;;;;;;;;;;;;;;4.32;83.93;98837.22;5117272;27;19930;-72
2021/03/12 05:09:38;;;;;;;;;;;;;;;4.34;84.55;98837.25;5117150;27;19927;-73
2021/03/12 05:12:08;;;;;;;;;;;;;;;4.35;84.24;98846.50;5116969;27;20376;-72
2021/03/12 05:14:38;;;;;;;;;;;;;;;4.37;84.04;98870.94;5116921;27;20301;-73
2021/03/12 05:17:05;;;;;;;;;;;;;;;4.43;84.78;98880.28;5116789;27;19931;-73
2021/03/12 05:19:34;;;;;;;;;;;;;;;4.45;84.11;98878.59;5116821;28;19924;-73
2021/03/12 05:22:02;;;;;;;;;;;;;;;4.40;84.45;98881.09;5135009;27;20395;-73
2021/03/12 05:24:33;;;;;;;;;;;;;;;4.39;84.03;98876.03;5116832;27;19924;-72
2021/03/12 05:27:02;;;;;;;;;;;;;;;4.41;83.93;98876.88;5116964;27;19928;-73
2021/03/12 05:29:38;;;;;;;;;;;;;;;4.46;84.57;98875.25;5116659;27;19924;-72
2021/03/12 05:32:07;;;;;;;;;;;;;;;4.46;84.31;98885.34;5134922;28;19924;-72
2021/03/12 05:34:39;;;;;;;;;;;;;;;4.48;83.71;98901.38;5116715;28;19955;-73
2021/03/12 05:37:11;;;;;;;;;;;;;;;4.53;83.78;98902.28;5116691;28;19930;-72
2021/03/12 05:39:41;;;;;;;;;;;;;;;4.52;83.68;98911.53;5116540;28;19923;-73
2021/03/12 05:42:14;;;;;;;;;;;;;;;4.56;84.26;98909.88;5116691;28;19930;-73
2021/03/12 05:44:46;;;;;;;;;;;;;;;4.54;84.05;98891.31;5116831;28;19969;-73
2021/03/12 05:47:16;;;;;;;;;;;;;;;4.48;83.83;98901.38;5134906;28;20365;-72
2021/03/12 05:49:45;;;;;;;;;;;;;;;4.54;84.26;98912.38;5134656;28;19923;-73
2021/03/12 05:52:13;;;;;;;;;;;;;;;4.58;83.60;98925.91;5116742;28;19923;-73
2021/03/12 05:54:44;;;;;;;;;;;;;;;4.60;83.73;98931.81;5116331;28;20318;-72
2021/03/12 05:57:15;;;;;;;;;;;;;;;4.63;83.78;98940.28;5136933;27;19972;-72
2021/03/12 05:59:43;;;;;;;;;;;;;;;4.62;83.44;98937.75;5138651;27;20362;-72
2021/03/12 06:02:12;;;;;;;;;;;;;;;4.61;83.68;98956.25;5120729;27;19937;-72
2021/03/12 06:04:44;;;;;;;;;;;;;;;4.63;83.29;98964.72;5120537;27;19924;-72
2021/03/12 06:07:14;;;;;;;;;;;;;;;4.65;83.29;98952.94;5120610;27;20373;-72
2021/03/12 06:09:44;;;;;;;;;;;;;;;4.62;83.49;98957.94;5138656;27;19972;-72
2021/03/12 06:12:15;;;;;;;;;;;;;;;4.64;83.41;98951.22;5138673;27;19973;-72
2021/03/12 06:14:50;;;;;;;;;;;;;;;4.66;83.57;98964.72;5120703;27;20014;-72
2021/03/12 06:17:31;;;;;;;;;;;;;;;4.64;83.27;98969.78;5138622;27;19945;-72
2021/03/12 06:19:59;;;;;;;;;;;;;;;4.63;83.73;98964.72;5119892;27;19945;-73
2021/03/12 06:22:31;;;;;;;;;;;;;;;4.64;83.47;98967.25;5120133;27;19927;-72
2021/03/12 06:25:09;;;;;;;;;;;;;;;4.74;83.36;98953.03;5138661;27;20369;-72
2021/03/12 06:28:18;;;;;;;;;;;;;;;4.73;83.04;98971.53;5122288;27;20334;-73
2021/03/12 06:30:56;;;;;;;;;;;;;;;4.80;83.85;98987.66;5138347;27;19934;-73
2021/03/12 06:33:36;;;;;;;;;;;;;;;4.83;83.51;98988.50;5138215;27;19968;-72
2021/03/12 06:36:28;;;;;;;;;;;;;;;4.78;83.35;98980.03;5138193;27;19930;-73
2021/03/12 06:39:07;;;;;;;;;;;;;;;4.82;83.46;98994.41;5138546;27;19927;-72
2021/03/12 06:41:46;;;;;;;;;;;;;;;4.84;83.79;99017.16;5138369;27;20296;-72
2021/03/12 06:44:31;;;;;;;;;;;;;;;4.85;83.52;99031.50;5119592;27;19930;-73
2021/03/12 06:47:03;;;;;;;;;;;;;;;4.94;83.37;99036.66;5119737;27;19930;-73
2021/03/12 06:49:32;;;;;;;;;;;;;;;5.16;84.04;99039.41;5137801;27;19930;-72
2021/03/12 06:52:09;;;;;;;;;;;;;;;5.27;83.79;99042.94;5137901;27;19924;-72
2021/03/12 06:54:52;;;;;;;;;;;;;;;5.34;83.33;99059.00;5137293;27;19923;-72
2021/03/12 06:57:27;;;;;;;;;;;;;;;5.41;83.65;99056.56;5120220;27;19962;-72
2021/03/12 07:00:09;;;;;;;;;;;;;;;5.48;83.23;99066.72;5119792;27;19924;-72
2021/03/12 07:02:43;;;;;;;;;;;;;;;5.60;83.40;99069.38;5119460;27;20389;-72
2021/03/12 07:05:17;;;;;;;;;;;;;;;5.64;82.91;99073.63;5119262;27;19930;-73
2021/03/12 07:07:56;;;;;;;;;;;;;;;5.62;82.75;99075.28;5136072;27;19933;-72
2021/03/12 07:10:37;;;;;;;;;;;;;;;5.63;82.30;99072.78;5119106;27;19938;-73
2021/03/12 07:13:20;;;;;;;;;;;;;;;5.64;82.69;99063.53;5137760;27;19923;-72
2021/03/12 07:15:54;;;;;;;;;;;;;;;5.65;82.57;99055.06;5119102;27;20018;-72
2021/03/12 07:18:45;;;;;;;;;;;;;;;5.73;81.97;99058.53;5136769;27;19924;-73
2021/03/12 07:21:18;;;;;;;;;;;;;;;5.78;82.13;99067.84;5119050;27;20031;-72
2021/03/12 07:23:47;;;;;;;;;;;;;;;5.90;82.02;99064.63;5119111;27;19956;-72
2021/03/12 07:26:22;;;;;;;;;;;;;;;6.02;82.05;99077.38;5118960;27;19924;-73
2021/03/12 07:29:00;;;;;;;;;;;;;;;6.12;81.70;99080.81;5118733;27;19972;-73
2021/03/12 07:31:40;;;;;;;;;;;;;;;6.18;82.01;99084.22;5137365;27;20297;-73
2021/03/12 07:34:15;;;;;;;;;;;;;;;6.24;82.11;99079.19;5118712;27;19924;-73
2021/03/12 07:36:47;;;;;;;;;;;;;;;6.32;82.14;99080.09;5119002;27;19927;-72
2021/03/12 07:39:17;;;;;;;;;;;;;;;6.35;82.31;99082.66;5137226;27;19930;-73
2021/03/12 07:41:46;;;;;;;;;;;;;;;6.52;82.32;99081.09;5118522;27;20014;-72
2021/03/12 07:44:38;;;;;;;;;;;;;;;6.69;82.72;99087.06;5098069;27;20284;-72
2021/03/12 07:47:31;;;;;;;;;;;;;;;6.90;82.34;99088.00;5136778;27;19924;-73
2021/03/12 07:50:21;;;;;;;;;;;;;;;7.05;82.89;99088.09;5118269;27;19988;-72
2021/03/12 07:52:49;;;;;;;;;;;;;;;7.13;82.15;99088.94;5118679;27;20047;-72
2021/03/12 07:55:43;;;;;;;;;;;;;;;7.17;81.84;99093.19;5114780;28;20011;-73
2021/03/12 07:58:40;;;;;;;;;;;;;;;7.24;81.72;99089.84;5116033;28;19930;-72
2021/03/12 08:01:08;;;;;;;;;;;;;;;7.40;80.91;99092.41;5114725;28;19934;-74
2021/03/12 08:03:42;;;;;;;;;;;;;;;7.64;80.97;99089.06;5114799;28;19924;-73
2021/03/12 08:06:31;;;;;;;;;;;;;;;8.04;80.08;99087.38;5115790;28;19924;-74
2021/03/12 08:09:30;;;;;;;;;;;;;;;8.48;79.44;99085.69;5114635;28;19924;-74
2021/03/12 08:12:29;;;;;;;;;;;;;;;8.90;78.65;99089.78;5104263;28;19924;-72
2021/03/12 08:15:13;;;;;;;;;;;;;;;9.12;77.09;99111.75;5115965;28;19927;-72
2021/03/12 08:18:03;;;;;;;;;;;;;;;9.37;76.19;99113.34;5114630;28;20030;-72
2021/03/12 08:20:41;;;;;;;;;;;;;;;9.43;74.89;99115.84;5114039;28;19923;-72
2021/03/12 08:23:32;;;;;;;;;;;;;;;9.36;74.14;99124.38;5114627;28;19923;-72
2021/03/12 08:26:03;;;;;;;;;;;;;;;9.21;72.58;99116.00;5114334;28;19924;-72
2021/03/12 08:28:45;;;;;;;;;;;;;;;9.12;72.43;99116.84;5115461;27;20015;-73
2021/03/12 08:31:37;;;;;;;;;;;;;;;9.07;71.87;99128.75;5115383;28;19961;-73
2021/03/12 08:34:27;;;;;;;;;;;;;;;8.97;71.16;99114.38;5115344;28;20030;-73
2021/03/12 08:37:29;;;;;;;;;;;;;;;9.05;71.43;99120.28;5115031;28;20385;-73
2021/03/12 08:40:18;;;;;;;;;;;;;;;9.10;70.15;99125.34;5115277;28;20381;-71
2021/03/12 08:43:00;;;;;;;;;;;;;;;9.05;69.25;99138.09;5115298;28;19924;-72
2021/03/12 08:45:48;;;;;;;;;;;;;;;9.04;67.09;99145.75;5083265;28;19923;-72
2021/03/12 08:48:27;;;;;;;;;;;;;;;9.10;67.12;99154.19;5113690;28;20404;-72
2021/03/12 08:50:59;;;;;;;;;;;;;;;9.45;66.10;99137.06;5113767;28;19977;-72
2021/03/12 08:53:28;;;;;;;;;;;;;;;9.73;63.72;99142.00;5113988;28;20385;-72
2021/03/12 08:55:59;;;;;;;;;;;;;;;9.98;63.16;99133.38;5113841;28;19928;-72
2021/03/12 08:58:39;;;;;;;;;;;;;;;10.23;62.27;99136.59;5113003;28;21733;-73
2021/03/12 09:01:22;;;;;;;;;;;;;;;10.39;60.79;99161.13;5113824;28;20083;-71
2021/03/12 09:03:58;;;;;;;;;;;;;;;10.54;59.52;99160.97;5096588;28;19930;-71
2021/03/12 09:06:43;;;;;;;;;;;;;;;10.71;59.08;99170.16;5113533;28;19923;-72
2021/03/12 09:09:26;;;;;;;;;;;;;;;10.80;59.02;99163.28;5114533;28;20022;-72
2021/03/12 09:12:08;;;;;;;;;;;;;;;10.54;59.04;99178.84;5114585;28;20263;-72
2021/03/12 09:14:57;;;;;;;;;;;;;;;10.24;58.87;99187.59;5114098;28;19924;-71
2021/03/12 09:17:36;;;;;;;;;;;;;;;10.18;58.96;99187.63;5114557;28;20369;-72
2021/03/12 09:20:13;;;;;;;;;;;;;;;10.24;58.64;99200.34;5113314;28;19928;-72
2021/03/12 09:22:52;;;;;;;;;;;;;;;10.17;58.89;99211.44;5113912;28;19923;-71
2021/03/12 09:25:25;;;;;;;;;;;;;;;10.21;58.28;99213.13;5113283;28;20285;-72
2021/03/12 09:28:00;;;;;;;;;;;;;;;10.18;58.32;99213.13;5113412;28;19924;-72
2021/03/12 09:30:31;;;;;;;;;;;;;;;10.08;57.63;99222.50;5112855;28;20391;-71
2021/03/12 09:33:25;;;;;;;;;;;;;;;10.07;57.81;99220.84;5113343;28;19924;-71
2021/03/12 09:35:58;;;;;;;;;;;;;;;9.95;57.30;99210.69;5113183;28;19971;-71
2021/03/12 09:38:27;;;;;;;;;;;;;;;9.75;57.03;99211.66;5114330;28;20330;-71
2021/03/12 09:41:13;;;;;;;;;;;;;;;9.63;57.26;99216.81;5096210;28;19985;-71
2021/03/12 09:43:42;;;;;;;;;;;;;;;9.79;57.37;99228.63;5113729;28;19931;-71
2021/03/12 09:46:15;;;;;;;;;;;;;;;10.28;56.84;99221.56;5096640;28;19935;-71
2021/03/12 09:48:58;;;;;;;;;;;;;;;10.80;55.95;99229.66;5113323;28;19931;-71
2021/03/12 09:51:34;;;;;;;;;;;;;;;11.07;55.87;99229.38;5113068;28;19924;-71
2021/03/12 09:54:04;;;;;;;;;;;;;;;11.39;55.21;99229.91;5113640;28;19949;-71
2021/03/12 09:56:39;;;;;;;;;;;;;;;11.34;54.66;99229.09;5116489;28;19923;-71
2021/03/12 09:59:10;;;;;;;;;;;;;;;11.55;54.64;99231.41;5116212;28;19927;-71
2021/03/12 10:02:02;;;;;;;;;;;;;;;11.47;53.83;99225.53;5092610;28;20433;-71
2021/03/12 10:04:58;;;;;;;;;;;;;;;11.29;53.58;99225.75;5120845;28;20296;-71
2021/03/12 10:07:52;;;;;;;;;;;;;;;11.59;53.10;99219.44;5134849;28;20066;-71
2021/03/12 10:10:35;;;;;;;;;;;;;;;11.81;52.72;99221.72;5116306;28;19957;-71
2021/03/12 10:13:04;;;;;;;;;;;;;;;11.95;51.93;99219.84;5134579;28;19931;-72
2021/03/12 10:15:41;;;;;;;;;;;;;;;12.19;51.19;99220.38;5116299;28;19923;-71
2021/03/12 10:18:22;;;;;;;;;;;;;;;12.43;50.69;99222.56;5134542;28;20339;-71
2021/03/12 10:21:10;;;;;;;;;;;;;;;12.55;49.94;99212.94;5134802;28;19959;-71
2021/03/12 10:23:38;;;;;;;;;;;;;;;12.55;49.95;99230.03;5134715;28;19923;-71
2021/03/12 10:26:09;;;;;;;;;;;;;;;12.50;49.68;99231.84;5134392;28;19923;-71
2021/03/12 10:28:37;;;;;;;;;;;;;;;11.80;49.48;99105.00;5134324;28;20385;-71
2021/03/12 10:31:05;;;;;;;;;;;;;;;12.75;49.52;99230.56;5134137;28;20021;-71
2021/03/12 10:33:35;;;;;;;;;;;;;;;13.08;49.17;99224.00;5134363;28;19924;-70
2021/03/12 10:36:05;;;;;;;;;;;;;;;13.15;49.11;99216.19;5116107;28;19924;-70
2021/03/12 10:38:34;;;;;;;;;;;;;;;11.03;47.89;98954.50;5134511;28;19923;-70
2021/03/12 10:41:16;;;;;;;;;;;;;;;12.20;48.60;99233.13;5116230;28;19924;-70
2021/03/12 10:43:55;;;;;;;;;;;;;;;12.04;48.79;99219.69;5118834;27;19972;-70
2021/03/12 10:46:23;;;;;;;;;;;;;;;12.00;48.46;99212.94;5138243;27;19983;-71
2021/03/12 10:48:53;;;;;;;;;;;;;;;11.95;49.08;99217.28;5138386;27;19930;-70
2021/03/12 10:51:22;;;;;;;;;;;;;;;12.09;49.51;99220.47;5137794;27;19924;-70
2021/03/12 10:53:50;;;;;;;;;;;;;;;12.49;48.97;99217.34;5137782;27;19924;-70
2021/03/12 10:56:18;;;;;;;;;;;;;;;12.91;47.76;99216.59;5137824;27;19928;-70
2021/03/12 10:58:45;;;;;;;;;;;;;;;12.83;47.81;99223.59;5137889;27;19930;-70
2021/03/12 11:01:14;;;;;;;;;;;;;;;12.55;47.49;99222.34;5137674;27;20369;-70
2021/03/12 11:03:44;;;;;;;;;;;;;;;12.38;47.34;99214.09;5137554;27;19923;-71
2021/03/12 11:06:13;;;;;;;;;;;;;;;12.54;47.68;99220.66;5137567;27;20387;-70
2021/03/12 11:08:42;;;;;;;;;;;;;;;12.70;47.47;99216.97;5137390;27;19924;-71
2021/03/12 11:11:13;;;;;;;;;;;;;;;12.41;47.65;99230.25;5137505;27;19924;-70
2021/03/12 11:13:42;;;;;;;;;;;;;;;12.18;47.90;99226.34;5137462;27;19930;-71
2021/03/12 11:16:10;;;;;;;;;;;;;;;12.23;48.02;99220.31;5137233;27;19937;-70
2021/03/12 11:18:38;;;;;;;;;;;;;;;12.22;47.99;99227.97;5118934;27;19923;-70
2021/03/12 11:21:08;;;;;;;;;;;;;;;12.13;47.86;99223.00;5137140;27;19927;-70
2021/03/12 11:23:37;;;;;;;;;;;;;;;12.06;47.86;99218.00;5137190;27;19984;-71
2021/03/12 11:26:06;;;;;;;;;;;;;;;11.96;48.04;99225.78;5137192;27;19924;-71
2021/03/12 11:28:34;;;;;;;;;;;;;;;11.77;48.16;99214.13;5137416;27;20273;-70
2021/03/12 11:31:03;;;;;;;;;;;;;;;11.54;47.69;99216.91;5136983;27;19927;-70
2021/03/12 11:33:32;;;;;;;;;;;;;;;11.47;47.85;99214.50;5137054;27;19972;-70
2021/03/12 11:36:00;;;;;;;;;;;;;;;11.50;48.20;99215.28;5137279;27;19930;-70
2021/03/12 11:38:28;;;;;;;;;;;;;;;11.74;48.49;99207.34;5137040;27;19962;-70
2021/03/12 11:40:57;;;;;;;;;;;;;;;12.47;47.82;99201.16;5136986;27;19923;-70
2021/03/12 11:43:25;;;;;;;;;;;;;;;12.83;46.77;99197.97;5136762;27;19923;-70
2021/03/12 11:45:53;;;;;;;;;;;;;;;13.08;46.40;99203.53;5136776;27;20373;-70
2021/03/12 11:48:22;;;;;;;;;;;;;;;13.50;46.31;99196.72;5136981;27;19930;-70
2021/03/12 11:50:51;;;;;;;;;;;;;;;13.79;45.30;99184.16;5136647;27;19955;-70
2021/03/12 11:53:19;;;;;;;;;;;;;;;13.98;44.57;99180.31;5136470;27;19930;-70
2021/03/12 11:55:47;;;;;;;;;;;;;;;14.22;44.11;99184.88;5135962;27;20411;-70
2021/03/12 11:58:16;;;;;;;;;;;;;;;14.18;43.42;99187.56;5136485;27;20010;-70
2021/03/12 12:00:44;;;;;;;;;;;;;;;14.08;43.16;99189.50;5136527;27;20335;-70
2021/03/12 12:03:12;;;;;;;;;;;;;;;14.19;43.60;99184.94;5136288;27;19923;-71
2021/03/12 12:05:40;;;;;;;;;;;;;;;14.39;43.51;99177.66;5136386;27;20289;-71
2021/03/12 12:08:08;;;;;;;;;;;;;;;14.24;42.73;99177.97;5136628;27;19975;-70
2021/03/12 12:10:36;;;;;;;;;;;;;;;13.86;42.31;99175.44;5136088;27;19923;-70
2021/03/12 12:13:04;;;;;;;;;;;;;;;14.03;42.11;99168.22;5136318;27;19928;-70
2021/03/12 12:15:33;;;;;;;;;;;;;;;13.91;41.75;99169.34;5136733;27;20305;-70
2021/03/12 12:18:02;;;;;;;;;;;;;;;13.69;42.15;99172.41;5136467;27;19959;-70
2021/03/12 12:20:31;;;;;;;;;;;;;;;13.43;42.75;99176.38;5136203;27;20380;-71
2021/03/12 12:22:58;;;;;;;;;;;;;;;13.40;43.20;99168.72;5135964;27;19923;-70
2021/03/12 12:25:26;;;;;;;;;;;;;;;13.17;43.11;99167.50;5136628;27;19931;-70
2021/03/12 12:27:54;;;;;;;;;;;;;;;13.01;43.63;99169.47;5136262;27;20373;-70
2021/03/12 12:30:22;;;;;;;;;;;;;;;13.09;43.41;99169.34;5135824;27;19930;-70
2021/03/12 12:32:52;;;;;;;;;;;;;;;13.29;43.44;99173.22;5135837;27;19924;-70
2021/03/12 12:35:20;;;;;;;;;;;;;;;13.27;43.62;99169.84;5135918;27;19976;-70
2021/03/12 12:37:49;;;;;;;;;;;;;;;13.21;43.75;99175.09;5135756;27;19923;-70
2021/03/12 12:40:18;;;;;;;;;;;;;;;13.33;43.55;99174.84;5135783;27;20018;-70
2021/03/12 12:42:46;;;;;;;;;;;;;;;13.23;42.91;99178.47;5135633;27;20018;-70
2021/03/12 12:45:15;;;;;;;;;;;;;;;13.12;43.12;99170.16;5135637;27;19931;-70
2021/03/12 12:47:43;;;;;;;;;;;;;;;13.37;43.33;99171.34;5135850;27;19923;-70
2021/03/12 12:50:13;;;;;;;;;;;;;;;13.43;43.28;99166.13;5135428;27;20093;-70
2021/03/12 12:52:41;;;;;;;;;;;;;;;13.86;42.85;99165.19;5117268;27;19924;-70
2021/03/12 12:55:09;;;;;;;;;;;;;;;14.47;42.45;99162.88;5117031;27;19927;-71
2021/03/12 12:57:37;;;;;;;;;;;;;;;14.80;42.54;99157.78;5135710;27;19931;-70
2021/03/12 13:00:06;;;;;;;;;;;;;;;15.02;41.80;99158.91;5135291;27;20338;-71
2021/03/12 13:02:34;;;;;;;;;;;;;;;15.18;41.36;99161.03;5135371;27;19923;-70
2021/03/12 13:05:03;;;;;;;;;;;;;;;15.28;40.64;99157.28;5135177;27;19923;-70
2021/03/12 13:07:32;;;;;;;;;;;;;;;14.87;40.93;99159.31;5135592;27;20059;-70
2021/03/12 13:10:00;;;;;;;;;;;;;;;14.53;41.40;99161.91;5135067;27;20291;-70
2021/03/12 13:12:28;;;;;;;;;;;;;;;14.08;42.73;99153.56;5135180;27;20043;-70
2021/03/12 13:14:57;;;;;;;;;;;;;;;13.90;41.96;99151.41;5135026;27;19923;-70
2021/03/12 13:17:24;;;;;;;;;;;;;;;13.62;42.02;99155.47;5135134;27;20365;-70
2021/03/12 13:19:53;;;;;;;;;;;;;;;13.35;42.37;99162.84;5135125;27;20030;-70
2021/03/12 13:22:23;;;;;;;;;;;;;;;13.48;42.43;99157.47;5134952;27;19930;-70
2021/03/12 13:24:52;;;;;;;;;;;;;;;13.84;42.23;99152.41;5135075;27;19927;-70